Richmond Beach, Washington
Current Conditions -  °F | °C
As of 2:53 PM on Sunday 21 Dec 2014 (Local Time) from KPAE Reporting Station
Broken Clouds Broken Clouds  
Wind Chill: 50°   Ceiling: 11000
Heat Index: 50°   Visibility: 10mi
Dew Point: 45°   Wind: 5mph
Humidity: 83%   Direction: 210°SSW
Pressure: 30"   Gusts: NA
Location:  47.7424°N, 122.371°W
Report Text: KPAE 212253Z 21004KT 10SM SCT015 BKN110 10/07 A3000 RMK AO2 SLP160 T01000072
Loading
Personal Weather Stations






























Interactive Weather Map New forecast layout! Learn more

10-Day Weather Forecast

Advertisements
Track Severe Weather on mobile